Time;durP1;ratioP1;P1;durP2;ratioP2;P2;SDS_P1;SDS_P2;PMS_P1;PMS_P2;Temp;Humidity;BMP_temperature;BMP_pressure;BME280_temperature;BME280_humidity;BME280_pressure;Samples;Min_cycle;Max_cycle;Signal;HPM_P1;HPM_P2
2023/07/16 00:01:38;;;;;;;7.93;4.60;;;;;;;26.10;62.29;95107.06;5008628;28;20265;-89
2023/07/16 00:04:04;;;;;;;8.10;5.00;;;;;;;26.05;62.95;95109.75;5013436;28;20256;-89
2023/07/16 00:06:41;;;;;;;5.22;4.72;;;;;;;26.02;62.55;95107.69;5030026;28;20198;-89
2023/07/16 00:09:09;;;;;;;8.75;7.57;;;;;;;25.92;63.03;95124.44;5030343;28;20222;-89
2023/07/16 00:11:40;;;;;;;5.25;4.70;;;;;;;25.91;63.70;95151.13;5013527;28;20205;-90
2023/07/16 00:14:24;;;;;;;8.75;6.18;;;;;;;25.91;63.65;95136.06;5010132;28;20230;-90
2023/07/16 00:16:51;;;;;;;5.88;5.07;;;;;;;25.81;64.46;95147.53;5010158;28;20213;-89
2023/07/16 00:19:30;;;;;;;4.88;4.32;;;;;;;25.82;64.31;95143.03;5007867;28;20227;-89
2023/07/16 00:22:04;;;;;;;5.57;4.45;;;;;;;25.83;64.34;95160.44;5009252;28;20203;-89
2023/07/16 00:24:31;;;;;;;4.63;4.20;;;;;;;25.68;65.43;95193.06;5010674;28;20263;-90
2023/07/16 00:27:10;;;;;;;6.75;4.32;;;;;;;25.78;64.73;95157.88;5010258;28;20191;-91
2023/07/16 00:29:43;;;;;;;6.25;4.80;;;;;;;25.73;65.25;95179.81;5010125;28;20254;-89
2023/07/16 00:32:16;;;;;;;8.15;4.82;;;;;;;25.70;65.86;95187.50;4997502;28;20270;-90
2023/07/16 00:37:46;;;;;;;5.32;4.25;;;;;;;25.77;65.88;95209.06;5009389;28;20199;-89
2023/07/16 00:40:28;;;;;;;5.38;4.22;;;;;;;25.72;65.88;95217.00;5010087;28;20193;-89
2023/07/16 00:46:08;;;;;;;5.00;4.50;;;;;;;25.86;65.15;95240.84;5008632;28;20210;-88
2023/07/16 00:48:41;;;;;;;6.07;4.43;;;;;;;25.87;65.36;95272.25;5011172;28;20280;-89
2023/07/16 00:51:14;;;;;;;5.45;4.30;;;;;;;25.91;65.34;95293.56;5008286;28;20203;-88
2023/07/16 00:53:48;;;;;;;7.07;4.60;;;;;;;25.85;65.19;95313.16;5010085;28;20199;-88
2023/07/16 00:56:18;;;;;;;4.72;4.28;;;;;;;25.78;65.24;95345.16;5009719;28;20284;-88
2023/07/16 00:58:48;;;;;;;5.88;4.35;;;;;;;25.67;66.05;95364.75;5009842;28;20313;-89
2023/07/16 01:01:15;;;;;;;5.53;4.50;;;;;;;25.69;66.29;95368.69;5009807;28;20201;-88
2023/07/16 01:03:42;;;;;;;7.60;4.53;;;;;;;25.64;67.17;95400.38;5009516;28;20218;-89
2023/07/16 01:06:15;;;;;;;6.30;4.65;;;;;;;25.64;67.05;95410.13;5022470;28;20206;-88
2023/07/16 01:08:58;;;;;;;7.40;4.55;;;;;;;25.58;67.16;95419.13;5009620;28;20231;-88
2023/07/16 01:11:26;;;;;;;5.82;4.68;;;;;;;25.54;67.61;95445.25;5009382;28;20198;-90
2023/07/16 01:13:54;;;;;;;4.60;4.18;;;;;;;25.42;68.05;95442.16;5005437;28;20199;-89
2023/07/16 01:16:22;;;;;;;9.95;4.78;;;;;;;25.43;67.93;95455.06;4989681;28;20227;-88
2023/07/16 01:18:48;;;;;;;4.82;4.40;;;;;;;25.34;68.37;95461.97;5001837;28;20305;-88
2023/07/16 01:21:15;;;;;;;8.82;4.95;;;;;;;25.25;69.56;95487.31;5008388;28;20754;-87
2023/07/16 01:24:00;;;;;;;6.22;4.25;;;;;;;25.30;69.71;95494.41;5007008;28;20720;-87
2023/07/16 01:27:00;;;;;;;7.60;4.63;;;;;;;25.22;70.09;95490.50;5009183;28;20194;-88
2023/07/16 01:29:34;;;;;;;5.13;4.63;;;;;;;25.25;69.61;95489.16;4985176;28;20234;-88
2023/07/16 01:32:03;;;;;;;5.57;4.80;;;;;;;25.21;70.57;95512.63;5008794;28;20195;-87
2023/07/16 01:34:35;;;;;;;5.55;4.90;;;;;;;25.18;70.17;95520.31;5007866;28;20214;-87
2023/07/16 01:37:02;;;;;;;5.18;4.78;;;;;;;25.19;70.26;95519.25;5009144;28;20210;-87
2023/07/16 01:39:35;;;;;;;8.00;4.65;;;;;;;25.17;70.92;95522.16;5007652;28;20250;-88
2023/07/16 01:42:05;;;;;;;5.13;4.72;;;;;;;25.16;71.05;95539.03;5008098;28;20203;-89
2023/07/16 01:44:36;;;;;;;9.73;4.88;;;;;;;25.16;70.78;95530.34;5008890;28;20233;-88
2023/07/16 01:47:11;;;;;;;4.95;4.50;;;;;;;25.17;70.67;95527.44;5008677;28;20665;-87
2023/07/16 01:49:38;;;;;;;5.65;4.90;;;;;;;25.13;71.23;95542.19;5009014;28;20611;-89
2023/07/16 01:52:14;;;;;;;6.82;4.97;;;;;;;25.18;71.30;95541.41;5007977;28;20341;-90
2023/07/16 01:54:41;;;;;;;8.07;4.78;;;;;;;25.27;70.62;95518.69;5006112;28;20196;-89
2023/07/16 01:57:07;;;;;;;5.85;4.88;;;;;;;25.29;70.35;95519.19;5008052;28;20715;-89
2023/07/16 01:59:38;;;;;;;5.88;4.75;;;;;;;25.30;70.55;95516.28;5009223;28;20250;-88
2023/07/16 02:02:08;;;;;;;9.70;5.00;;;;;;;25.23;71.41;95536.09;5008870;28;20235;-88
2023/07/16 02:04:36;;;;;;;6.10;5.05;;;;;;;25.16;72.15;95546.94;5016636;28;20295;-88
2023/07/16 02:07:03;;;;;;;5.28;4.82;;;;;;;25.09;71.89;95547.22;5026645;28;20571;-87
2023/07/16 02:09:30;;;;;;;7.10;5.00;;;;;;;25.17;71.68;95547.72;5008624;28;20250;-87
2023/07/16 02:11:57;;;;;;;8.73;5.20;;;;;;;25.20;71.21;95536.66;5006786;28;20202;-87
2023/07/16 02:14:24;;;;;;;6.97;4.72;;;;;;;25.21;71.85;95554.03;5001017;28;20259;-89
2023/07/16 02:16:52;;;;;;;6.88;4.63;;;;;;;25.15;72.51;95573.56;4989781;28;20200;-88
2023/07/16 02:19:18;;;;;;;4.88;4.47;;;;;;;25.15;72.47;95571.69;4989199;28;20235;-88
2023/07/16 02:21:45;;;;;;;5.68;4.53;;;;;;;25.16;72.22;95568.00;4988197;28;20628;-88
2023/07/16 02:24:11;;;;;;;5.75;4.93;;;;;;;25.18;71.99;95563.28;5008136;28;20223;-88
2023/07/16 02:26:37;;;;;;;6.28;5.30;;;;;;;25.22;72.25;95560.84;5007188;28;20199;-87
2023/07/16 02:29:08;;;;;;;7.13;4.82;;;;;;;25.19;72.38;95551.66;5008059;28;20223;-88
2023/07/16 02:31:35;;;;;;;5.55;4.80;;;;;;;25.23;72.29;95557.97;5008535;28;20191;-90
2023/07/16 02:34:04;;;;;;;5.78;4.47;;;;;;;25.33;71.63;95554.50;5008233;28;20249;-87
2023/07/16 02:36:30;;;;;;;8.73;4.95;;;;;;;25.38;71.60;95552.66;5008382;28;20234;-87
2023/07/16 02:38:56;;;;;;;6.57;4.88;;;;;;;25.41;71.29;95546.03;5008441;28;20226;-87
2023/07/16 02:41:23;;;;;;;5.72;4.90;;;;;;;25.43;70.77;95541.28;5008334;28;20199;-88
2023/07/16 02:44:00;;;;;;;5.13;4.63;;;;;;;25.43;70.96;95542.06;5006107;28;20219;-88
2023/07/16 02:46:26;;;;;;;5.15;4.75;;;;;;;25.37;71.46;95553.72;5008906;28;20626;-88
2023/07/16 02:48:53;;;;;;;5.85;4.82;;;;;;;25.35;70.41;95542.63;5008251;28;20218;-88
2023/07/16 02:51:21;;;;;;;4.47;4.10;;;;;;;25.38;70.51;95547.38;5008434;28;20226;-89
2023/07/16 02:53:47;;;;;;;4.72;3.97;;;;;;;25.35;70.34;95539.22;5009139;28;20206;-87
2023/07/16 02:56:14;;;;;;;5.78;4.63;;;;;;;25.29;70.63;95541.06;5011832;28;20207;-88
2023/07/16 02:58:40;;;;;;;5.10;4.60;;;;;;;25.32;71.06;95542.38;5009185;28;20222;-87
2023/07/16 03:01:06;;;;;;;6.65;4.18;;;;;;;25.28;71.21;95557.16;5011489;28;20211;-87
2023/07/16 03:03:34;;;;;;;4.70;3.88;;;;;;;25.28;70.80;95554.53;5010979;28;20202;-89
2023/07/16 03:06:00;;;;;;;4.68;3.65;;;;;;;25.27;70.68;95553.72;5035639;28;20233;-88
2023/07/16 03:08:29;;;;;;;4.78;3.80;;;;;;;25.25;71.22;95560.31;5018749;28;20223;-88
2023/07/16 03:10:56;;;;;;;4.18;3.70;;;;;;;25.28;70.26;95550.03;5011378;28;20199;-88
2023/07/16 03:13:22;;;;;;;3.63;3.33;;;;;;;25.31;70.64;95554.00;5010644;28;20199;-88
2023/07/16 03:15:49;;;;;;;5.43;3.80;;;;;;;25.33;70.45;95550.03;5000336;28;20203;-89
2023/07/16 03:18:17;;;;;;;3.75;3.38;;;;;;;25.34;70.30;95538.44;5010988;28;20234;-87
2023/07/16 03:20:46;;;;;;;3.92;3.60;;;;;;;25.25;71.37;95565.59;5010453;28;20672;-87
2023/07/16 03:23:12;;;;;;;6.88;3.30;;;;;;;25.22;70.97;95561.66;5010871;28;20198;-87
2023/07/16 03:25:40;;;;;;;4.28;3.22;;;;;;;25.09;72.17;95583.31;5011224;28;20223;-89
2023/07/16 03:28:07;;;;;;;4.20;3.35;;;;;;;25.05;72.35;95587.53;5010472;28;20218;-87
2023/07/16 03:30:33;;;;;;;3.42;3.08;;;;;;;25.04;72.04;95594.66;5010929;28;20226;-88
2023/07/16 03:33:02;;;;;;;4.90;3.22;;;;;;;25.08;71.85;95589.63;5009168;28;20293;-87
2023/07/16 03:35:28;;;;;;;3.10;2.70;;;;;;;25.11;71.78;95600.44;5010785;28;20198;-87
2023/07/16 03:37:55;;;;;;;3.20;3.00;;;;;;;25.04;71.88;95604.38;5010830;28;20202;-88
2023/07/16 03:40:25;;;;;;;4.38;2.80;;;;;;;24.99;71.96;95599.16;5010814;28;20289;-88
2023/07/16 03:42:53;;;;;;;3.00;2.70;;;;;;;24.97;71.58;95603.91;5010275;28;20235;-88
2023/07/16 03:45:20;;;;;;;3.10;2.50;;;;;;;24.97;70.85;95585.47;4991038;28;20258;-89
2023/07/16 03:47:46;;;;;;;2.90;2.40;;;;;;;24.93;70.33;95563.28;4997083;28;20211;-88
2023/07/16 03:50:13;;;;;;;3.25;2.70;;;;;;;24.89;70.36;95564.88;5010519;28;20207;-88
2023/07/16 03:52:39;;;;;;;4.32;2.40;;;;;;;24.94;69.68;95570.16;5009872;28;20202;-88
2023/07/16 03:55:07;;;;;;;2.83;2.33;;;;;;;25.03;69.26;95552.75;5010528;28;20298;-88
2023/07/16 03:57:34;;;;;;;2.47;2.22;;;;;;;25.08;68.94;95552.75;5009903;28;20199;-88
2023/07/16 04:00:03;;;;;;;2.75;2.42;;;;;;;25.10;68.76;95548.00;5010773;28;20233;-89
2023/07/16 04:02:30;;;;;;;2.85;2.35;;;;;;;25.12;69.09;95546.69;5010714;28;20198;-87
2023/07/16 04:04:56;;;;;;;3.53;2.58;;;;;;;25.18;68.48;95544.81;5011370;28;20257;-89
2023/07/16 04:07:25;;;;;;;3.95;2.63;;;;;;;25.22;68.76;95545.03;5010665;28;20699;-89
2023/07/16 04:09:52;;;;;;;3.15;2.30;;;;;;;25.17;68.96;95551.16;5010233;28;20231;-88
2023/07/16 04:12:18;;;;;;;2.75;2.45;;;;;;;25.09;70.23;95592.00;5009673;28;20198;-89
2023/07/16 04:14:45;;;;;;;2.60;2.40;;;;;;;25.05;71.97;95650.75;5010917;28;20206;-89
2023/07/16 04:17:14;;;;;;;2.70;2.50;;;;;;;24.99;73.70;95696.63;5011219;28;20199;-87
2023/07/16 04:19:40;;;;;;;3.33;2.55;;;;;;;24.84;76.44;95757.97;5008187;28;20245;-87
2023/07/16 04:22:07;;;;;;;5.47;2.88;;;;;;;24.64;79.28;95797.44;5008686;28;20587;-89
2023/07/16 04:24:36;;;;;;;3.85;2.63;;;;;;;24.60;79.19;95802.44;5009816;28;20227;-88
2023/07/16 04:27:02;;;;;;;3.50;2.45;;;;;;;24.47;81.10;95839.75;5010547;28;20199;-89
2023/07/16 04:29:29;;;;;;;3.45;2.70;;;;;;;24.38;82.04;95851.84;5010288;28;20673;-87
2023/07/16 04:31:55;;;;;;;3.15;2.50;;;;;;;24.23;83.24;95860.44;5010138;28;20207;-87
2023/07/16 04:34:23;;;;;;;8.77;7.88;;;;;;;24.15;83.76;95862.75;5010450;28;20206;-87
2023/07/16 04:36:49;;;;;;;7.82;7.15;;;;;;;24.17;83.07;95869.34;5008666;28;20696;-87
2023/07/16 04:39:16;;;;;;;3.60;2.80;;;;;;;24.15;82.33;95855.66;5010221;28;20233;-86
2023/07/16 04:41:42;;;;;;;3.85;2.80;;;;;;;24.18;81.90;95846.47;5009975;28;20218;-87
2023/07/16 04:44:09;;;;;;;5.13;3.00;;;;;;;24.14;82.70;95864.59;5010629;28;20207;-88
2023/07/16 04:46:35;;;;;;;4.00;3.00;;;;;;;24.11;83.59;95870.34;5010794;28;20650;-87
2023/07/16 04:49:02;;;;;;;3.53;2.60;;;;;;;24.17;82.96;95869.34;5010719;28;20225;-87
2023/07/16 04:51:29;;;;;;;3.03;2.75;;;;;;;24.14;82.05;95848.81;5008763;28;20209;-88
2023/07/16 04:53:56;;;;;;;2.70;2.40;;;;;;;24.16;80.64;95820.41;5009087;28;20257;-88
2023/07/16 04:56:23;;;;;;;2.70;2.50;;;;;;;24.18;81.30;95823.56;5009105;28;20257;-88
2023/07/16 04:58:49;;;;;;;2.97;2.40;;;;;;;24.11;83.32;95836.16;5009477;28;20265;-87
2023/07/16 05:01:15;;;;;;;2.50;2.30;;;;;;;24.04;84.35;95860.06;5009278;28;20207;-88
2023/07/16 05:03:42;;;;;;;3.65;2.47;;;;;;;24.05;82.80;95829.31;5008910;28;20679;-87
2023/07/16 05:06:08;;;;;;;2.25;2.10;;;;;;;23.97;83.13;95846.34;5028944;28;20229;-87
2023/07/16 05:08:36;;;;;;;2.55;2.25;;;;;;;23.99;84.05;95864.50;5007242;28;20218;-87
2023/07/16 05:11:03;;;;;;;2.90;2.60;;;;;;;23.88;85.46;95883.88;5008429;28;20215;-87
2023/07/16 05:13:33;;;;;;;3.63;2.63;;;;;;;23.95;84.00;95873.94;5002492;28;20245;-87
2023/07/16 05:15:59;;;;;;;2.55;2.35;;;;;;;23.96;82.71;95843.97;5008920;28;20665;-89
2023/07/16 05:18:34;;;;;;;4.60;2.17;;;;;;;24.01;83.09;95846.63;5007822;28;20230;-87
2023/07/16 05:21:00;;;;;;;2.40;2.20;;;;;;;24.11;81.16;95823.00;5008243;28;20205;-87
2023/07/16 05:23:32;;;;;;;2.65;2.45;;;;;;;24.15;81.39;95821.44;5008695;28;20202;-87
2023/07/16 05:26:00;;;;;;;2.38;2.17;;;;;;;24.15;81.97;95831.97;5007257;28;20226;-87
2023/07/16 05:28:31;;;;;;;4.80;4.43;;;;;;;24.17;82.21;95837.78;5008849;28;20218;-87
2023/07/16 05:31:06;;;;;;;17.08;15.57;;;;;;;24.18;83.84;95872.78;5008653;28;20203;-87
2023/07/16 05:33:46;;;;;;;5.70;4.88;;;;;;;24.22;83.76;95873.84;5008407;28;20705;-87
2023/07/16 05:36:14;;;;;;;3.53;2.88;;;;;;;24.23;84.08;95872.81;5008841;28;20214;-87
2023/07/16 05:38:46;;;;;;;3.67;2.60;;;;;;;24.26;84.53;95874.94;5008887;28;20246;-87
2023/07/16 05:41:14;;;;;;;2.70;2.50;;;;;;;24.28;84.91;95891.25;5006335;28;20211;-87
2023/07/16 05:43:45;;;;;;;3.58;2.70;;;;;;;24.21;84.05;95882.78;5008006;28;20238;-88
2023/07/16 05:46:20;;;;;;;3.42;2.60;;;;;;;24.14;85.29;95905.91;5008764;28;20227;-87
2023/07/16 05:48:52;;;;;;;2.63;2.42;;;;;;;24.27;84.35;95893.09;5009049;28;20253;-88
2023/07/16 05:51:34;;;;;;;2.38;2.20;;;;;;;24.34;83.15;95885.00;5008307;28;20202;-87
2023/07/16 05:54:01;;;;;;;2.50;2.30;;;;;;;24.37;83.42;95897.66;5008181;28;20401;-87
2023/07/16 05:56:47;;;;;;;2.78;2.33;;;;;;;24.38;83.73;95896.59;5006770;28;20195;-87
2023/07/16 05:59:19;;;;;;;2.75;2.40;;;;;;;24.42;83.28;95882.69;5006694;28;20222;-88
2023/07/16 06:01:48;;;;;;;2.80;2.40;;;;;;;24.49;82.69;95884.25;5008912;28;20203;-87
2023/07/16 06:04:19;;;;;;;3.08;2.70;;;;;;;24.52;84.45;95910.88;5013061;28;20221;-87
2023/07/16 06:06:53;;;;;;;3.33;2.50;;;;;;;24.52;84.12;95902.97;5027710;28;20228;-87
2023/07/16 06:09:28;;;;;;;3.10;2.80;;;;;;;24.55;83.55;95896.41;5016530;28;20211;-87
2023/07/16 06:11:56;;;;;;;6.45;5.85;;;;;;;24.62;83.63;95894.34;5000386;28;20199;-87
2023/07/16 06:14:26;;;;;;;4.50;3.17;;;;;;;24.66;84.12;95903.28;5005968;28;20217;-87
2023/07/16 06:16:57;;;;;;;2.85;2.65;;;;;;;24.63;83.45;95909.09;5008697;28;20285;-87
2023/07/16 06:19:23;;;;;;;4.20;2.47;;;;;;;24.60;83.43;95912.25;5008064;28;20226;-87
2023/07/16 06:21:49;;;;;;;3.58;2.50;;;;;;;24.63;82.39;95894.06;5007687;28;20202;-87
2023/07/16 06:24:16;;;;;;;3.10;2.80;;;;;;;24.65;82.90;95888.53;5008316;28;20199;-87
2023/07/16 06:26:42;;;;;;;2.85;2.63;;;;;;;24.73;82.23;95882.78;5007909;28;20249;-86
2023/07/16 06:29:10;;;;;;;2.95;2.65;;;;;;;24.77;83.35;95902.31;5009661;28;20722;-87
2023/07/16 06:31:36;;;;;;;2.67;2.47;;;;;;;24.77;82.69;95897.81;5011724;28;20218;-87
2023/07/16 06:34:03;;;;;;;2.95;2.70;;;;;;;24.74;82.51;95897.53;5011235;28;20707;-87
2023/07/16 06:36:29;;;;;;;2.88;2.35;;;;;;;24.77;81.98;95883.88;5011663;28;20195;-87
2023/07/16 06:38:56;;;;;;;2.50;2.30;;;;;;;24.77;82.80;95902.31;5011693;28;20976;-87
2023/07/16 06:41:22;;;;;;;3.25;2.80;;;;;;;24.81;82.76;95894.69;5011840;28;20203;-87
2023/07/16 06:43:48;;;;;;;3.65;2.90;;;;;;;24.86;83.20;95892.84;5011492;28;20207;-87
2023/07/16 06:46:16;;;;;;;3.95;3.10;;;;;;;24.95;83.27;95890.53;5009932;28;20230;-87
2023/07/16 06:48:43;;;;;;;3.05;2.85;;;;;;;24.94;84.58;95916.09;5011153;28;20321;-87
2023/07/16 06:51:09;;;;;;;2.70;2.40;;;;;;;25.07;84.08;95915.59;5011489;28;20203;-87
2023/07/16 06:53:36;;;;;;;2.70;2.50;;;;;;;25.17;82.37;95890.31;5010868;28;20219;-87
2023/07/16 06:56:02;;;;;;;3.67;2.30;;;;;;;25.22;79.13;95824.41;5011277;28;20194;-87
2023/07/16 06:58:33;;;;;;;2.60;2.40;;;;;;;25.24;78.47;95815.19;5011577;28;20233;-87
2023/07/16 07:00:59;;;;;;;14.95;13.68;;;;;;;25.22;79.06;95829.69;5009349;28;20199;-87
2023/07/16 07:03:27;;;;;;;17.55;16.10;;;;;;;25.29;79.61;95838.94;5009095;28;20203;-87
2023/07/16 07:05:53;;;;;;;3.33;3.13;;;;;;;25.33;77.72;95800.47;5013691;28;20218;-87
2023/07/16 07:08:20;;;;;;;2.13;1.92;;;;;;;25.29;76.95;95790.69;5008654;28;20225;-87
2023/07/16 07:10:47;;;;;;;2.05;1.85;;;;;;;25.31;76.54;95776.19;5012548;28;20209;-88
2023/07/16 07:13:14;;;;;;;2.13;1.92;;;;;;;25.37;75.93;95758.53;5010016;28;20226;-87
2023/07/16 07:15:40;;;;;;;2.42;1.70;;;;;;;25.35;74.74;95735.09;5010706;28;20624;-87
2023/07/16 07:18:06;;;;;;;2.50;1.90;;;;;;;25.39;74.83;95736.13;5008614;28;20237;-88
2023/07/16 07:20:34;;;;;;;1.98;1.50;;;;;;;25.33;76.19;95747.72;5010151;28;20195;-87
2023/07/16 07:23:03;;;;;;;2.75;2.17;;;;;;;25.31;75.64;95744.56;5009384;28;20199;-87
2023/07/16 07:25:29;;;;;;;2.65;1.70;;;;;;;25.32;75.10;95740.88;5010350;28;20273;-88
2023/07/16 07:27:56;;;;;;;2.00;1.90;;;;;;;25.26;73.79;95710.28;5010205;28;20195;-88
2023/07/16 07:30:22;;;;;;;1.83;1.70;;;;;;;25.12;74.41;95725.88;5009038;28;20191;-87
2023/07/16 07:36:51;;;;;;;12.07;10.98;;;;;;;25.15;73.27;95690.28;4942930;28;20255;-87
2023/07/16 07:39:25;;;;;;;3.28;3.05;;;;;;;25.08;72.06;95677.38;4909408;28;20238;-87
2023/07/16 07:55:57;;;;;;;1.70;1.60;;;;;;;25.21;70.30;95619.94;4888083;29;20237;-89
2023/07/16 07:58:33;;;;;;;5.00;4.60;;;;;;;25.17;72.32;95658.41;4925682;28;20216;-88
2023/07/16 08:15:36;;;;;;;1.80;1.70;;;;;;;25.41;72.09;95660.19;4841450;29;20232;-87
2023/07/16 08:18:02;;;;;;;1.90;1.80;;;;;;;25.72;71.16;95625.84;4991864;28;20201;-90
2023/07/16 08:20:29;;;;;;;2.28;1.73;;;;;;;25.90;68.53;95583.00;5008124;28;20210;-88
2023/07/16 08:22:56;;;;;;;1.70;1.60;;;;;;;25.83;69.52;95579.06;5005626;28;20199;-87
2023/07/16 08:25:22;;;;;;;1.80;1.70;;;;;;;25.67;67.86;95533.53;5008949;28;20203;-88
2023/07/16 09:06:13;;;;;;;2.10;1.60;;;;;;;26.21;59.80;95271.31;4871611;29;20689;-88
2023/07/16 09:34:13;;;;;;;;;;;;;;;;;;;;;
2023/07/16 10:39:06;;;;;;;5.60;3.63;;;;;;;28.05;54.67;95033.47;5017756;28;20238;-87
2023/07/16 10:41:52;;;;;;;1.80;1.70;;;;;;;28.21;53.54;94974.91;5018604;28;20240;-87
2023/07/16 10:44:29;;;;;;;1.90;1.77;;;;;;;28.27;51.68;94900.34;5022732;28;20248;-87
2023/07/16 10:50:30;;;;;;;1.70;1.60;;;;;;;28.09;50.96;94825.34;4955012;28;20830;-87
2023/07/16 10:56:51;;;;;;;3.22;2.50;;;;;;;28.93;49.93;94823.56;4984273;28;20282;-88
2023/07/16 11:30:05;;;;;;;2.00;1.80;;;;;;;29.43;48.21;94712.50;5014165;28;20218;-84
2023/07/16 11:32:48;;;;;;;2.58;2.03;;;;;;;29.75;47.70;94688.03;5022197;28;20199;-87
2023/07/16 11:46:21;;;;;;;2.28;2.08;;;;;;;29.87;47.86;94682.03;4882756;29;20862;-86
2023/07/16 12:16:58;;;;;;;2.10;1.92;;;;;;;29.98;48.00;94701.06;4938052;29;20213;-85
2023/07/16 12:54:50;;;;;;;3.47;3.17;;;;;;;28.36;55.51;95030.13;4823304;29;20682;-87
2023/07/16 12:57:32;;;;;;;19.67;17.67;;;;;;;28.39;55.47;95035.59;4900994;29;20698;-87
2023/07/16 12:59:59;;;;;;;7.72;6.70;;;;;;;28.49;55.33;95031.91;4945677;28;20999;-85
2023/07/16 13:02:27;;;;;;;5.15;4.68;;;;;;;28.61;55.82;95071.91;4977261;28;20198;-86
2023/07/16 13:04:54;;;;;;;3.70;3.33;;;;;;;28.73;55.38;95040.31;5019387;28;20199;-86
2023/07/16 13:07:23;;;;;;;3.50;3.20;;;;;;;28.82;54.84;95003.28;5015793;28;20214;-86
2023/07/16 13:09:49;;;;;;;2.70;2.50;;;;;;;28.82;54.44;95000.66;5016230;28;20233;-86
2023/07/16 13:12:26;;;;;;;2.40;2.20;;;;;;;28.85;54.34;94995.53;5013798;28;20213;-86
2023/07/16 13:14:56;;;;;;;2.90;2.50;;;;;;;28.88;54.76;95020.59;5014932;28;20267;-87
2023/07/16 13:35:40;;;;;;;2.72;2.53;;;;;;;29.37;52.78;94920.59;4765724;26;20215;-86
2023/07/16 13:45:18;;;;;;;3.17;2.45;;;;;;;29.11;53.52;94945.22;4907502;29;20201;-87
2023/07/16 13:53:04;;;;;;;2.20;2.10;;;;;;;29.82;51.96;94879.41;5005866;28;20221;-87
2023/07/16 13:58:36;;;;;;;2.30;2.20;;;;;;;29.53;51.24;94845.56;5007597;28;20288;-88
2023/07/16 14:01:16;;;;;;;7.97;6.57;;;;;;;29.38;52.44;94893.00;5005926;28;20230;-88
2023/07/16 14:04:21;;;;;;;2.97;2.78;;;;;;;29.49;52.07;94879.13;5006912;28;20813;-88
2023/07/16 14:07:37;;;;;;;3.22;2.03;;;;;;;29.92;50.87;94822.53;5006905;28;20222;-88
2023/07/16 14:26:17;;;;;;;3.20;2.50;;;;;;;29.86;50.83;94799.91;4998677;28;20611;-88
2023/07/16 16:29:26;;;;;;;2.67;2.47;;;;;;;28.54;52.11;94867.56;4862688;29;20362;-89
2023/07/16 16:32:21;;;;;;;2.33;2.13;;;;;;;28.58;52.02;94865.06;4884912;29;20227;-88
2023/07/16 16:45:41;;;;;;;2.40;2.20;;;;;;;29.01;51.08;94833.41;4906167;29;20213;-89
2023/07/16 16:48:36;;;;;;;;;;;;;;;;;;;;;
2023/07/16 16:51:29;;;;;;;4.10;2.90;;;;;;;29.03;51.04;94816.09;4999268;28;20221;-90
2023/07/16 16:53:56;;;;;;;4.70;2.95;;;;;;;29.07;51.13;94834.78;5002634;28;20317;-89
2023/07/16 16:56:25;;;;;;;4.00;2.90;;;;;;;29.07;51.08;94827.59;5008910;28;20269;-87
2023/07/16 17:02:13;;;;;;;3.42;3.13;;;;;;;28.92;51.73;94833.38;4980551;28;20211;-88
2023/07/16 17:04:51;;;;;;;3.55;2.67;;;;;;;28.86;51.37;94845.97;5017427;28;20198;-89
2023/07/16 17:10:25;;;;;;;5.32;3.53;;;;;;;28.78;52.03;94857.34;5026660;28;20230;-89
2023/07/16 17:13:10;;;;;;;4.32;2.67;;;;;;;28.76;51.49;94848.13;5008336;28;20195;-89
2023/07/16 17:15:49;;;;;;;3.85;2.90;;;;;;;28.70;51.77;94833.47;5006872;28;20292;-89
2023/07/16 17:18:20;;;;;;;4.45;3.85;;;;;;;28.56;52.12;94848.72;5009985;28;20664;-89
2023/07/16 17:21:08;;;;;;;4.90;3.35;;;;;;;28.54;52.30;94875.50;5008413;28;20290;-89
2023/07/16 17:23:47;;;;;;;11.32;10.25;;;;;;;28.53;52.44;94877.38;5003768;28;20286;-88
2023/07/16 17:29:19;;;;;;;5.82;5.32;;;;;;;28.54;52.05;94876.28;4999223;28;20267;-91
2023/07/16 17:35:37;;;;;;;6.07;5.32;;;;;;;28.43;52.04;94875.00;4945709;28;20211;-90
2023/07/16 19:40:46;;;;;;;4.70;4.30;;;;;;;26.52;56.29;95097.50;5224362;23;20646;-87
2023/07/16 19:43:15;;;;;;;9.15;6.97;;;;;;;26.55;56.26;95118.03;5027698;28;20233;-86
2023/07/16 19:45:41;;;;;;;4.93;4.15;;;;;;;26.58;56.82;95130.66;5031370;28;20209;-86
2023/07/16 19:48:08;;;;;;;6.03;5.22;;;;;;;26.55;56.90;95139.16;5018782;28;20233;-86
2023/07/16 19:50:35;;;;;;;4.93;3.70;;;;;;;26.57;57.00;95144.91;4992102;28;20207;-86
2023/07/16 19:53:01;;;;;;;2.90;2.70;;;;;;;26.56;56.76;95146.78;4972272;28;20287;-86
2023/07/16 19:55:28;;;;;;;2.80;2.60;;;;;;;26.54;57.14;95153.44;4976915;28;20203;-86
2023/07/16 19:57:56;;;;;;;3.00;2.80;;;;;;;26.37;58.09;95180.34;4991226;28;20209;-86
2023/07/16 20:00:22;;;;;;;2.88;2.20;;;;;;;26.22;58.06;95209.56;4991068;28;20215;-87
2023/07/16 20:02:49;;;;;;;2.88;2.63;;;;;;;26.19;58.77;95239.94;4991018;28;20841;-86
2023/07/16 20:05:19;;;;;;;4.05;2.70;;;;;;;26.23;58.57;95254.13;5004390;28;20206;-86
2023/07/16 20:07:46;;;;;;;2.97;2.78;;;;;;;26.26;58.88;95260.72;5002097;28;20306;-87
2023/07/16 20:10:12;;;;;;;5.28;3.10;;;;;;;26.24;58.85;95278.69;4992244;28;20223;-87
2023/07/16 20:12:38;;;;;;;3.15;2.90;;;;;;;26.29;59.10;95273.34;4990033;28;20696;-86
2023/07/16 20:15:08;;;;;;;3.33;3.00;;;;;;;26.25;59.44;95286.31;4991546;28;20210;-86
2023/07/16 20:17:34;;;;;;;4.55;3.45;;;;;;;26.26;59.25;95284.47;4991592;28;20206;-87
2023/07/16 20:20:01;;;;;;;4.32;3.40;;;;;;;26.24;59.39;95289.25;4991714;28;20241;-87
2023/07/16 20:22:30;;;;;;;5.43;4.30;;;;;;;26.23;59.20;95296.38;4990264;28;20731;-86
2023/07/16 20:24:57;;;;;;;3.83;3.53;;;;;;;26.17;59.96;95323.88;4992431;28;20203;-86
2023/07/16 20:27:24;;;;;;;3.92;3.60;;;;;;;26.18;60.05;95325.47;4990456;28;20200;-86
2023/07/16 20:29:56;;;;;;;4.78;4.20;;;;;;;26.14;60.42;95329.75;4988574;28;20223;-86
2023/07/16 20:32:24;;;;;;;5.00;4.30;;;;;;;26.15;60.62;95331.31;4990746;28;20211;-87
2023/07/16 20:34:50;;;;;;;4.00;3.60;;;;;;;26.05;61.11;95342.75;4991241;28;20215;-86
2023/07/16 20:37:19;;;;;;;4.15;3.38;;;;;;;26.07;60.64;95329.28;4991109;28;20593;-86
2023/07/16 20:39:49;;;;;;;4.55;3.80;;;;;;;26.03;61.20;95336.97;4990939;28;20219;-86
2023/07/16 20:42:18;;;;;;;6.28;4.32;;;;;;;26.06;60.64;95323.22;4990794;28;20238;-86
2023/07/16 20:45:19;;;;;;;5.00;4.50;;;;;;;25.96;61.50;95344.44;4989685;28;20287;-86
2023/07/16 20:47:48;;;;;;;4.65;3.88;;;;;;;25.94;61.62;95358.97;4989976;28;20210;-87
2023/07/16 20:50:16;;;;;;;2.90;2.70;;;;;;;25.87;61.97;95364.56;4993682;28;20815;-86
2023/07/16 20:52:44;;;;;;;3.75;3.10;;;;;;;25.91;61.18;95352.41;4990008;28;20204;-86
2023/07/16 20:55:11;;;;;;;9.38;7.10;;;;;;;25.92;61.36;95359.25;4990732;28;20553;-86
2023/07/16 20:57:38;;;;;;;9.68;6.85;;;;;;;25.90;61.94;95364.03;4991457;28;20210;-86
2023/07/16 21:00:10;;;;;;;8.80;7.05;;;;;;;25.88;62.08;95354.81;4990801;28;20220;-86
2023/07/16 21:02:37;;;;;;;13.43;11.88;;;;;;;25.81;62.83;95381.50;4990773;28;20608;-87
2023/07/16 21:05:05;;;;;;;9.57;8.65;;;;;;;25.77;62.30;95389.19;4989795;28;20199;-86
2023/07/16 21:07:32;;;;;;;5.63;5.10;;;;;;;25.75;62.79;95393.97;4990125;28;20746;-86
2023/07/16 21:09:59;;;;;;;4.97;4.47;;;;;;;25.83;62.28;95391.78;4990719;28;20235;-87
2023/07/16 21:12:25;;;;;;;5.32;4.65;;;;;;;25.84;62.84;95385.44;4990776;28;20203;-87
2023/07/16 21:14:52;;;;;;;5.35;4.50;;;;;;;25.83;63.01;95392.56;4990255;28;20247;-86
2023/07/16 21:17:18;;;;;;;3.75;3.45;;;;;;;25.80;62.88;95401.03;4990962;28;20250;-86
2023/07/16 21:19:46;;;;;;;5.70;3.90;;;;;;;25.72;63.22;95410.34;4989788;28;20222;-86
2023/07/16 21:22:13;;;;;;;5.05;4.60;;;;;;;25.65;63.61;95415.13;4989083;28;20215;-86
2023/07/16 21:24:40;;;;;;;4.00;3.60;;;;;;;25.56;64.09;95435.22;4990576;28;20203;-87
2023/07/16 21:27:08;;;;;;;4.65;3.42;;;;;;;25.53;64.49;95448.16;4990700;28;20323;-86
2023/07/16 21:29:35;;;;;;;3.05;2.85;;;;;;;25.47;65.05;95474.56;4989663;28;20223;-87
2023/07/16 21:32:02;;;;;;;3.33;3.10;;;;;;;25.53;64.83;95463.97;4990073;28;20746;-86
2023/07/16 21:34:29;;;;;;;3.55;3.25;;;;;;;25.62;64.41;95457.88;4989755;28;20290;-86
2023/07/16 21:36:57;;;;;;;3.85;3.47;;;;;;;25.67;63.96;95463.13;4988545;28;20257;-86
2023/07/16 21:39:25;;;;;;;5.38;3.70;;;;;;;25.66;64.46;95468.66;4989546;28;20226;-86
2023/07/16 21:42:02;;;;;;;3.22;3.03;;;;;;;25.64;64.75;95462.88;4989638;28;20215;-87
2023/07/16 21:44:30;;;;;;;4.40;4.00;;;;;;;25.54;65.06;95473.47;4988672;28;20205;-86